sensor_id;sensor_type;location;lat;lon;timestamp;temperature;humidity
15574;DHT22;7888;46.748;8.102;2023-02-04T00:00:14;8.60;47.70
15574;DHT22;7888;46.748;8.102;2023-02-04T00:02:44;8.70;48.00
15574;DHT22;7888;46.748;8.102;2023-02-04T00:05:12;8.60;47.90
15574;DHT22;7888;46.748;8.102;2023-02-04T00:07:38;8.60;48.10
15574;DHT22;7888;46.748;8.102;2023-02-04T00:10:06;8.60;48.20
15574;DHT22;7888;46.748;8.102;2023-02-04T00:12:32;8.60;48.40
15574;DHT22;7888;46.748;8.102;2023-02-04T00:14:58;8.60;48.40
15574;DHT22;7888;46.748;8.102;2023-02-04T00:17:24;8.60;48.40
15574;DHT22;7888;46.748;8.102;2023-02-04T00:19:50;8.60;48.40
15574;DHT22;7888;46.748;8.102;2023-02-04T00:22:16;8.60;48.30
15574;DHT22;7888;46.748;8.102;2023-02-04T00:24:42;8.60;48.40
15574;DHT22;7888;46.748;8.102;2023-02-04T00:27:12;8.60;48.50
15574;DHT22;7888;46.748;8.102;2023-02-04T00:29:38;8.60;48.60
15574;DHT22;7888;46.748;8.102;2023-02-04T00:32:04;8.60;48.70
15574;DHT22;7888;46.748;8.102;2023-02-04T00:34:30;8.70;48.90
15574;DHT22;7888;46.748;8.102;2023-02-04T00:36:55;8.60;48.90
15574;DHT22;7888;46.748;8.102;2023-02-04T00:39:21;8.70;48.90
15574;DHT22;7888;46.748;8.102;2023-02-04T00:41:47;8.70;49.00
15574;DHT22;7888;46.748;8.102;2023-02-04T00:44:13;8.70;48.90
15574;DHT22;7888;46.748;8.102;2023-02-04T00:46:42;8.70;48.90
15574;DHT22;7888;46.748;8.102;2023-02-04T00:49:09;8.70;49.30
15574;DHT22;7888;46.748;8.102;2023-02-04T00:51:40;8.70;49.10
15574;DHT22;7888;46.748;8.102;2023-02-04T00:54:11;8.70;49.20
15574;DHT22;7888;46.748;8.102;2023-02-04T00:56:37;8.70;48.90
15574;DHT22;7888;46.748;8.102;2023-02-04T00:59:03;8.60;48.80
15574;DHT22;7888;46.748;8.102;2023-02-04T01:01:29;8.60;48.80
15574;DHT22;7888;46.748;8.102;2023-02-04T01:03:55;8.50;48.90
15574;DHT22;7888;46.748;8.102;2023-02-04T01:06:21;8.50;49.00
15574;DHT22;7888;46.748;8.102;2023-02-04T01:08:46;8.50;49.20
15574;DHT22;7888;46.748;8.102;2023-02-04T01:11:12;8.50;49.30
15574;DHT22;7888;46.748;8.102;2023-02-04T01:13:38;8.40;49.40
15574;DHT22;7888;46.748;8.102;2023-02-04T01:16:04;8.40;49.50
15574;DHT22;7888;46.748;8.102;2023-02-04T01:18:30;8.50;49.70
15574;DHT22;7888;46.748;8.102;2023-02-04T01:20:56;8.40;49.70
15574;DHT22;7888;46.748;8.102;2023-02-04T01:23:22;8.40;49.80
15574;DHT22;7888;46.748;8.102;2023-02-04T01:25:47;8.40;49.90
15574;DHT22;7888;46.748;8.102;2023-02-04T01:28:13;8.40;49.90
15574;DHT22;7888;46.748;8.102;2023-02-04T01:30:39;8.40;49.90
15574;DHT22;7888;46.748;8.102;2023-02-04T01:33:05;8.30;49.90
15574;DHT22;7888;46.748;8.102;2023-02-04T01:35:31;8.30;50.00
15574;DHT22;7888;46.748;8.102;2023-02-04T01:37:57;8.30;50.00
15574;DHT22;7888;46.748;8.102;2023-02-04T01:40:23;8.30;50.10
15574;DHT22;7888;46.748;8.102;2023-02-04T01:42:52;8.30;50.20
15574;DHT22;7888;46.748;8.102;2023-02-04T01:45:18;8.30;50.50
15574;DHT22;7888;46.748;8.102;2023-02-04T01:47:45;8.30;50.20
15574;DHT22;7888;46.748;8.102;2023-02-04T01:50:13;8.30;50.40
15574;DHT22;7888;46.748;8.102;2023-02-04T01:52:41;8.30;50.50
15574;DHT22;7888;46.748;8.102;2023-02-04T01:55:14;8.20;50.40
15574;DHT22;7888;46.748;8.102;2023-02-04T01:57:43;8.20;50.80
15574;DHT22;7888;46.748;8.102;2023-02-04T02:00:32;8.20;50.60
15574;DHT22;7888;46.748;8.102;2023-02-04T02:02:59;8.20;51.00
15574;DHT22;7888;46.748;8.102;2023-02-04T02:08:01;8.30;50.90
15574;DHT22;7888;46.748;8.102;2023-02-04T02:10:30;8.30;51.50
15574;DHT22;7888;46.748;8.102;2023-02-04T02:12:57;8.20;50.80
15574;DHT22;7888;46.748;8.102;2023-02-04T02:15:24;8.20;50.70
15574;DHT22;7888;46.748;8.102;2023-02-04T02:17:51;8.20;50.80
15574;DHT22;7888;46.748;8.102;2023-02-04T02:20:21;8.10;50.90
15574;DHT22;7888;46.748;8.102;2023-02-04T02:25:37;8.00;51.60
15574;DHT22;7888;46.748;8.102;2023-02-04T02:28:11;8.00;51.00
15574;DHT22;7888;46.748;8.102;2023-02-04T02:30:39;8.00;51.60
15574;DHT22;7888;46.748;8.102;2023-02-04T02:33:06;8.00;51.30
15574;DHT22;7888;46.748;8.102;2023-02-04T02:35:33;8.00;51.40
15574;DHT22;7888;46.748;8.102;2023-02-04T02:37:59;7.90;51.40
15574;DHT22;7888;46.748;8.102;2023-02-04T02:40:25;7.90;51.50
15574;DHT22;7888;46.748;8.102;2023-02-04T02:42:51;7.90;51.50
15574;DHT22;7888;46.748;8.102;2023-02-04T02:45:25;7.90;51.60
15574;DHT22;7888;46.748;8.102;2023-02-04T02:47:53;7.90;52.00
15574;DHT22;7888;46.748;8.102;2023-02-04T02:50:24;7.90;51.70
15574;DHT22;7888;46.748;8.102;2023-02-04T02:52:52;7.90;51.90
15574;DHT22;7888;46.748;8.102;2023-02-04T02:55:21;7.90;51.90
15574;DHT22;7888;46.748;8.102;2023-02-04T02:57:51;7.90;52.10
15574;DHT22;7888;46.748;8.102;2023-02-04T03:00:21;7.90;52.00
15574;DHT22;7888;46.748;8.102;2023-02-04T03:03:13;7.90;52.00
15574;DHT22;7888;46.748;8.102;2023-02-04T03:05:46;7.90;53.50
15574;DHT22;7888;46.748;8.102;2023-02-04T03:08:14;8.00;52.10
15574;DHT22;7888;46.748;8.102;2023-02-04T03:10:41;8.00;51.90
15574;DHT22;7888;46.748;8.102;2023-02-04T03:13:10;8.00;51.90
15574;DHT22;7888;46.748;8.102;2023-02-04T03:15:37;8.00;51.90
15574;DHT22;7888;46.748;8.102;2023-02-04T03:18:04;8.00;51.90
15574;DHT22;7888;46.748;8.102;2023-02-04T03:20:31;8.00;52.10
15574;DHT22;7888;46.748;8.102;2023-02-04T03:22:58;8.00;52.20
15574;DHT22;7888;46.748;8.102;2023-02-04T03:25:24;8.00;52.20
15574;DHT22;7888;46.748;8.102;2023-02-04T03:27:54;8.00;52.10
15574;DHT22;7888;46.748;8.102;2023-02-04T03:30:22;8.00;52.20
15574;DHT22;7888;46.748;8.102;2023-02-04T03:32:49;8.00;52.30
15574;DHT22;7888;46.748;8.102;2023-02-04T03:35:16;8.00;52.30
15574;DHT22;7888;46.748;8.102;2023-02-04T03:37:42;8.00;52.30
15574;DHT22;7888;46.748;8.102;2023-02-04T03:40:09;8.00;52.30
15574;DHT22;7888;46.748;8.102;2023-02-04T03:42:35;8.00;52.40
15574;DHT22;7888;46.748;8.102;2023-02-04T03:45:02;8.00;53.10
15574;DHT22;7888;46.748;8.102;2023-02-04T03:47:28;8.00;52.60
15574;DHT22;7888;46.748;8.102;2023-02-04T03:49:54;8.00;52.60
15574;DHT22;7888;46.748;8.102;2023-02-04T03:52:20;8.00;52.50
15574;DHT22;7888;46.748;8.102;2023-02-04T03:54:46;8.00;52.50
15574;DHT22;7888;46.748;8.102;2023-02-04T03:57:12;8.00;52.50
15574;DHT22;7888;46.748;8.102;2023-02-04T03:59:40;8.00;52.50
15574;DHT22;7888;46.748;8.102;2023-02-04T04:02:06;8.00;52.50
15574;DHT22;7888;46.748;8.102;2023-02-04T04:04:32;8.00;52.50
15574;DHT22;7888;46.748;8.102;2023-02-04T04:06:58;8.00;52.60
15574;DHT22;7888;46.748;8.102;2023-02-04T04:09:24;8.00;52.70
15574;DHT22;7888;46.748;8.102;2023-02-04T04:11:50;8.00;52.80
15574;DHT22;7888;46.748;8.102;2023-02-04T04:14:15;8.00;52.80
15574;DHT22;7888;46.748;8.102;2023-02-04T04:16:41;8.00;53.00
15574;DHT22;7888;46.748;8.102;2023-02-04T04:19:07;8.00;52.90
15574;DHT22;7888;46.748;8.102;2023-02-04T04:21:33;8.00;52.80
15574;DHT22;7888;46.748;8.102;2023-02-04T04:23:58;8.00;52.80
15574;DHT22;7888;46.748;8.102;2023-02-04T04:26:24;7.90;52.70
15574;DHT22;7888;46.748;8.102;2023-02-04T04:28:50;7.90;52.70
15574;DHT22;7888;46.748;8.102;2023-02-04T04:31:16;7.90;52.90
15574;DHT22;7888;46.748;8.102;2023-02-04T04:33:41;7.90;52.80
15574;DHT22;7888;46.748;8.102;2023-02-04T04:36:08;7.80;52.70
15574;DHT22;7888;46.748;8.102;2023-02-04T04:38:33;7.90;52.90
15574;DHT22;7888;46.748;8.102;2023-02-04T04:40:59;7.90;53.00
15574;DHT22;7888;46.748;8.102;2023-02-04T04:43:25;7.80;53.00
15574;DHT22;7888;46.748;8.102;2023-02-04T04:45:51;7.80;52.90
15574;DHT22;7888;46.748;8.102;2023-02-04T04:48:17;7.80;53.00
15574;DHT22;7888;46.748;8.102;2023-02-04T04:50:43;7.80;53.00
15574;DHT22;7888;46.748;8.102;2023-02-04T04:53:09;7.90;53.10
15574;DHT22;7888;46.748;8.102;2023-02-04T04:55:39;7.80;53.00
15574;DHT22;7888;46.748;8.102;2023-02-04T04:58:06;7.90;53.70
15574;DHT22;7888;46.748;8.102;2023-02-04T05:00:32;7.90;53.60
15574;DHT22;7888;46.748;8.102;2023-02-04T05:02:58;7.90;53.50
15574;DHT22;7888;46.748;8.102;2023-02-04T05:05:24;7.90;53.40
15574;DHT22;7888;46.748;8.102;2023-02-04T05:07:50;8.00;53.50
15574;DHT22;7888;46.748;8.102;2023-02-04T05:10:18;8.00;53.30
15574;DHT22;7888;46.748;8.102;2023-02-04T05:12:44;7.90;53.20
15574;DHT22;7888;46.748;8.102;2023-02-04T05:15:10;7.90;53.20
15574;DHT22;7888;46.748;8.102;2023-02-04T05:17:36;7.90;53.20
15574;DHT22;7888;46.748;8.102;2023-02-04T05:20:03;7.90;53.20
15574;DHT22;7888;46.748;8.102;2023-02-04T05:22:29;7.90;53.30
15574;DHT22;7888;46.748;8.102;2023-02-04T05:24:55;7.80;53.30
15574;DHT22;7888;46.748;8.102;2023-02-04T05:27:20;7.80;53.30
15574;DHT22;7888;46.748;8.102;2023-02-04T05:29:46;7.80;53.30
15574;DHT22;7888;46.748;8.102;2023-02-04T05:32:13;7.80;53.30
15574;DHT22;7888;46.748;8.102;2023-02-04T05:34:38;7.80;53.30
15574;DHT22;7888;46.748;8.102;2023-02-04T05:37:04;7.80;53.20
15574;DHT22;7888;46.748;8.102;2023-02-04T05:39:30;7.80;53.30
15574;DHT22;7888;46.748;8.102;2023-02-04T05:41:56;7.80;53.40
15574;DHT22;7888;46.748;8.102;2023-02-04T05:44:21;7.80;53.50
15574;DHT22;7888;46.748;8.102;2023-02-04T05:46:47;7.80;53.50
15574;DHT22;7888;46.748;8.102;2023-02-04T05:49:13;7.80;53.60
15574;DHT22;7888;46.748;8.102;2023-02-04T05:51:39;7.80;53.70
15574;DHT22;7888;46.748;8.102;2023-02-04T05:54:05;7.80;53.80
15574;DHT22;7888;46.748;8.102;2023-02-04T05:56:31;7.80;53.80
15574;DHT22;7888;46.748;8.102;2023-02-04T05:58:57;7.80;53.80
15574;DHT22;7888;46.748;8.102;2023-02-04T06:01:22;7.80;53.80
15574;DHT22;7888;46.748;8.102;2023-02-04T06:03:48;7.80;53.80
15574;DHT22;7888;46.748;8.102;2023-02-04T06:06:14;7.80;54.00
15574;DHT22;7888;46.748;8.102;2023-02-04T06:08:40;7.80;53.90
15574;DHT22;7888;46.748;8.102;2023-02-04T06:11:05;7.80;53.90
15574;DHT22;7888;46.748;8.102;2023-02-04T06:13:31;7.80;53.80
15574;DHT22;7888;46.748;8.102;2023-02-04T06:15:57;7.80;53.80
15574;DHT22;7888;46.748;8.102;2023-02-04T06:18:23;7.80;53.90
15574;DHT22;7888;46.748;8.102;2023-02-04T06:20:49;7.80;54.00
15574;DHT22;7888;46.748;8.102;2023-02-04T06:23:14;7.80;54.00
15574;DHT22;7888;46.748;8.102;2023-02-04T06:25:40;7.80;54.10
15574;DHT22;7888;46.748;8.102;2023-02-04T06:28:06;7.80;54.00
15574;DHT22;7888;46.748;8.102;2023-02-04T06:30:32;7.80;54.10
15574;DHT22;7888;46.748;8.102;2023-02-04T06:32:57;7.80;54.20
15574;DHT22;7888;46.748;8.102;2023-02-04T06:35:23;7.80;54.30
15574;DHT22;7888;46.748;8.102;2023-02-04T06:37:49;7.80;54.40
15574;DHT22;7888;46.748;8.102;2023-02-04T06:40:15;7.90;54.30
15574;DHT22;7888;46.748;8.102;2023-02-04T06:42:41;7.80;54.20
15574;DHT22;7888;46.748;8.102;2023-02-04T06:45:07;7.80;54.20
15574;DHT22;7888;46.748;8.102;2023-02-04T06:47:33;7.80;54.30
15574;DHT22;7888;46.748;8.102;2023-02-04T06:49:58;7.90;54.40
15574;DHT22;7888;46.748;8.102;2023-02-04T06:52:24;7.90;54.30
15574;DHT22;7888;46.748;8.102;2023-02-04T06:54:50;7.90;54.30
15574;DHT22;7888;46.748;8.102;2023-02-04T06:57:16;7.90;54.40
15574;DHT22;7888;46.748;8.102;2023-02-04T06:59:41;7.90;54.40
15574;DHT22;7888;46.748;8.102;2023-02-04T07:02:10;7.90;54.60
15574;DHT22;7888;46.748;8.102;2023-02-04T07:04:36;7.90;54.60
15574;DHT22;7888;46.748;8.102;2023-02-04T07:07:02;8.00;54.60
15574;DHT22;7888;46.748;8.102;2023-02-04T07:09:28;8.00;54.60
15574;DHT22;7888;46.748;8.102;2023-02-04T07:11:54;8.00;54.60
15574;DHT22;7888;46.748;8.102;2023-02-04T07:14:20;8.00;54.60
15574;DHT22;7888;46.748;8.102;2023-02-04T07:16:46;8.00;54.60
15574;DHT22;7888;46.748;8.102;2023-02-04T07:19:11;8.00;54.60
15574;DHT22;7888;46.748;8.102;2023-02-04T07:21:37;8.00;54.60
15574;DHT22;7888;46.748;8.102;2023-02-04T07:24:03;8.00;54.60
15574;DHT22;7888;46.748;8.102;2023-02-04T07:26:29;8.00;54.70
15574;DHT22;7888;46.748;8.102;2023-02-04T07:28:55;8.00;54.60
15574;DHT22;7888;46.748;8.102;2023-02-04T07:31:20;8.10;54.70
15574;DHT22;7888;46.748;8.102;2023-02-04T07:33:46;8.10;54.70
15574;DHT22;7888;46.748;8.102;2023-02-04T07:36:12;8.10;54.70
15574;DHT22;7888;46.748;8.102;2023-02-04T07:38:38;8.10;54.70
15574;DHT22;7888;46.748;8.102;2023-02-04T07:41:04;8.10;54.70
15574;DHT22;7888;46.748;8.102;2023-02-04T07:43:30;8.10;54.70
15574;DHT22;7888;46.748;8.102;2023-02-04T07:45:55;8.10;54.70
15574;DHT22;7888;46.748;8.102;2023-02-04T07:48:21;8.10;54.70
15574;DHT22;7888;46.748;8.102;2023-02-04T07:50:47;8.10;54.70
15574;DHT22;7888;46.748;8.102;2023-02-04T07:53:13;8.10;54.80
15574;DHT22;7888;46.748;8.102;2023-02-04T07:55:39;8.20;54.90
15574;DHT22;7888;46.748;8.102;2023-02-04T07:58:04;8.20;55.00
15574;DHT22;7888;46.748;8.102;2023-02-04T08:00:30;8.20;55.00
15574;DHT22;7888;46.748;8.102;2023-02-04T08:02:56;8.20;55.00
15574;DHT22;7888;46.748;8.102;2023-02-04T08:05:22;8.20;55.00
15574;DHT22;7888;46.748;8.102;2023-02-04T08:07:47;8.20;55.20
15574;DHT22;7888;46.748;8.102;2023-02-04T08:10:13;8.20;55.20
15574;DHT22;7888;46.748;8.102;2023-02-04T08:12:39;8.30;55.30
15574;DHT22;7888;46.748;8.102;2023-02-04T08:15:05;8.30;55.20
15574;DHT22;7888;46.748;8.102;2023-02-04T08:17:33;8.30;55.20
15574;DHT22;7888;46.748;8.102;2023-02-04T08:19:59;8.30;55.20
15574;DHT22;7888;46.748;8.102;2023-02-04T08:22:28;8.30;55.10
15574;DHT22;7888;46.748;8.102;2023-02-04T08:24:53;8.40;55.20
15574;DHT22;7888;46.748;8.102;2023-02-04T08:27:19;8.40;55.30
15574;DHT22;7888;46.748;8.102;2023-02-04T08:29:45;8.50;55.40
15574;DHT22;7888;46.748;8.102;2023-02-04T08:32:11;8.50;55.60
15574;DHT22;7888;46.748;8.102;2023-02-04T08:34:38;8.50;55.60
15574;DHT22;7888;46.748;8.102;2023-02-04T08:37:04;8.60;55.60
15574;DHT22;7888;46.748;8.102;2023-02-04T08:39:30;8.60;55.50
15574;DHT22;7888;46.748;8.102;2023-02-04T08:41:57;8.60;55.40
15574;DHT22;7888;46.748;8.102;2023-02-04T08:44:23;8.70;55.40
15574;DHT22;7888;46.748;8.102;2023-02-04T08:46:49;8.70;55.30
15574;DHT22;7888;46.748;8.102;2023-02-04T08:49:15;8.70;55.30
15574;DHT22;7888;46.748;8.102;2023-02-04T08:51:40;8.70;55.20
15574;DHT22;7888;46.748;8.102;2023-02-04T08:54:06;8.70;55.20
15574;DHT22;7888;46.748;8.102;2023-02-04T08:56:32;8.70;55.30
15574;DHT22;7888;46.748;8.102;2023-02-04T08:58:59;8.70;55.30
15574;DHT22;7888;46.748;8.102;2023-02-04T09:01:25;8.80;55.30
15574;DHT22;7888;46.748;8.102;2023-02-04T09:03:51;8.80;55.30
15574;DHT22;7888;46.748;8.102;2023-02-04T09:06:17;8.80;55.30
15574;DHT22;7888;46.748;8.102;2023-02-04T09:08:43;8.80;55.30
15574;DHT22;7888;46.748;8.102;2023-02-04T09:11:09;8.80;55.40
15574;DHT22;7888;46.748;8.102;2023-02-04T09:13:37;8.80;55.50
15574;DHT22;7888;46.748;8.102;2023-02-04T09:16:03;8.80;55.70
15574;DHT22;7888;46.748;8.102;2023-02-04T09:18:29;8.80;55.80
15574;DHT22;7888;46.748;8.102;2023-02-04T09:20:57;8.90;55.80
15574;DHT22;7888;46.748;8.102;2023-02-04T09:23:23;8.90;55.90
15574;DHT22;7888;46.748;8.102;2023-02-04T09:25:50;9.00;56.10
15574;DHT22;7888;46.748;8.102;2023-02-04T09:28:16;9.00;56.10
15574;DHT22;7888;46.748;8.102;2023-02-04T09:30:43;9.10;56.30
15574;DHT22;7888;46.748;8.102;2023-02-04T09:33:11;9.20;56.30
15574;DHT22;7888;46.748;8.102;2023-02-04T09:35:39;9.20;56.10
15574;DHT22;7888;46.748;8.102;2023-02-04T09:38:05;9.30;55.90
15574;DHT22;7888;46.748;8.102;2023-02-04T09:40:33;9.30;55.70
15574;DHT22;7888;46.748;8.102;2023-02-04T09:43:05;9.40;55.70
15574;DHT22;7888;46.748;8.102;2023-02-04T09:45:35;9.40;55.50
15574;DHT22;7888;46.748;8.102;2023-02-04T09:48:05;9.40;55.70
15574;DHT22;7888;46.748;8.102;2023-02-04T09:50:32;9.40;55.70
15574;DHT22;7888;46.748;8.102;2023-02-04T09:53:02;9.40;55.50
15574;DHT22;7888;46.748;8.102;2023-02-04T09:55:33;9.40;55.60
15574;DHT22;7888;46.748;8.102;2023-02-04T09:58:04;9.50;55.90
15574;DHT22;7888;46.748;8.102;2023-02-04T10:00:35;9.50;55.80
15574;DHT22;7888;46.748;8.102;2023-02-04T10:03:02;9.50;55.60
15574;DHT22;7888;46.748;8.102;2023-02-04T10:05:30;9.60;55.70
15574;DHT22;7888;46.748;8.102;2023-02-04T10:07:58;9.60;55.70
15574;DHT22;7888;46.748;8.102;2023-02-04T10:10:26;9.60;55.60
15574;DHT22;7888;46.748;8.102;2023-02-04T10:12:56;9.70;55.60
15574;DHT22;7888;46.748;8.102;2023-02-04T10:15:24;9.70;55.50
15574;DHT22;7888;46.748;8.102;2023-02-04T10:17:57;9.60;55.30
15574;DHT22;7888;46.748;8.102;2023-02-04T10:20:25;9.70;55.60
15574;DHT22;7888;46.748;8.102;2023-02-04T10:22:54;9.70;55.40
15574;DHT22;7888;46.748;8.102;2023-02-04T10:25:22;9.70;55.60
15574;DHT22;7888;46.748;8.102;2023-02-04T10:27:57;9.70;55.60
15574;DHT22;7888;46.748;8.102;2023-02-04T10:30:30;9.80;55.70
15574;DHT22;7888;46.748;8.102;2023-02-04T10:33:22;9.80;55.70
15574;DHT22;7888;46.748;8.102;2023-02-04T10:36:00;9.80;55.70
15574;DHT22;7888;46.748;8.102;2023-02-04T10:38:25;9.80;55.50
15574;DHT22;7888;46.748;8.102;2023-02-04T10:41:04;9.80;55.20
15574;DHT22;7888;46.748;8.102;2023-02-04T10:43:31;9.90;55.90
15574;DHT22;7888;46.748;8.102;2023-02-04T10:46:00;9.80;55.40
15574;DHT22;7888;46.748;8.102;2023-02-04T10:48:27;9.80;55.50
15574;DHT22;7888;46.748;8.102;2023-02-04T10:50:55;9.80;55.30
15574;DHT22;7888;46.748;8.102;2023-02-04T10:53:25;9.90;55.40
15574;DHT22;7888;46.748;8.102;2023-02-04T10:56:21;9.90;55.50
15574;DHT22;7888;46.748;8.102;2023-02-04T10:58:47;9.90;55.70
15574;DHT22;7888;46.748;8.102;2023-02-04T11:01:16;9.90;55.40
15574;DHT22;7888;46.748;8.102;2023-02-04T11:03:43;9.90;55.40
15574;DHT22;7888;46.748;8.102;2023-02-04T11:06:23;9.90;55.30
15574;DHT22;7888;46.748;8.102;2023-02-04T11:08:50;9.90;55.70
15574;DHT22;7888;46.748;8.102;2023-02-04T11:16:31;10.00;55.40
15574;DHT22;7888;46.748;8.102;2023-02-04T11:19:11;10.00;55.70
15574;DHT22;7888;46.748;8.102;2023-02-04T11:26:44;10.10;55.50
15574;DHT22;7888;46.748;8.102;2023-02-04T11:39:35;10.20;56.00
15574;DHT22;7888;46.748;8.102;2023-02-04T11:42:37;10.30;55.60
15574;DHT22;7888;46.748;8.102;2023-02-04T11:47:46;10.30;55.50
15574;DHT22;7888;46.748;8.102;2023-02-04T11:52:55;10.30;55.60
15574;DHT22;7888;46.748;8.102;2023-02-04T11:55:21;10.40;55.30
15574;DHT22;7888;46.748;8.102;2023-02-04T11:57:52;10.40;55.40
15574;DHT22;7888;46.748;8.102;2023-02-04T12:00:23;10.40;55.50
15574;DHT22;7888;46.748;8.102;2023-02-04T12:02:57;10.40;55.40
15574;DHT22;7888;46.748;8.102;2023-02-04T12:05:38;10.50;55.50
15574;DHT22;7888;46.748;8.102;2023-02-04T12:08:29;10.50;55.50
15574;DHT22;7888;46.748;8.102;2023-02-04T12:11:07;10.50;55.80
15574;DHT22;7888;46.748;8.102;2023-02-04T12:13:49;10.50;55.40
15574;DHT22;7888;46.748;8.102;2023-02-04T12:16:18;10.50;55.40
15574;DHT22;7888;46.748;8.102;2023-02-04T12:18:44;10.50;55.00
15574;DHT22;7888;46.748;8.102;2023-02-04T12:21:10;10.50;54.90
15574;DHT22;7888;46.748;8.102;2023-02-04T12:23:36;10.50;54.90
15574;DHT22;7888;46.748;8.102;2023-02-04T12:26:01;10.50;55.00
15574;DHT22;7888;46.748;8.102;2023-02-04T12:28:28;10.40;54.90
15574;DHT22;7888;46.748;8.102;2023-02-04T12:30:54;10.40;55.00
15574;DHT22;7888;46.748;8.102;2023-02-04T12:33:20;10.40;55.00
15574;DHT22;7888;46.748;8.102;2023-02-04T12:35:49;10.40;55.00
15574;DHT22;7888;46.748;8.102;2023-02-04T12:38:15;10.40;55.10
15574;DHT22;7888;46.748;8.102;2023-02-04T12:40:41;10.40;55.20
15574;DHT22;7888;46.748;8.102;2023-02-04T12:43:07;10.40;55.20
15574;DHT22;7888;46.748;8.102;2023-02-04T12:45:33;10.40;55.40
15574;DHT22;7888;46.748;8.102;2023-02-04T12:47:59;10.40;55.40
15574;DHT22;7888;46.748;8.102;2023-02-04T12:50:25;10.40;55.50
15574;DHT22;7888;46.748;8.102;2023-02-04T12:52:55;10.50;55.60
15574;DHT22;7888;46.748;8.102;2023-02-04T12:55:25;10.50;55.70
15574;DHT22;7888;46.748;8.102;2023-02-04T12:57:52;10.50;55.60
15574;DHT22;7888;46.748;8.102;2023-02-04T13:00:20;10.50;55.40
15574;DHT22;7888;46.748;8.102;2023-02-04T13:02:46;10.60;55.30
15574;DHT22;7888;46.748;8.102;2023-02-04T13:05:13;10.60;55.20
15574;DHT22;7888;46.748;8.102;2023-02-04T13:07:41;10.60;55.10
15574;DHT22;7888;46.748;8.102;2023-02-04T13:10:09;10.60;55.00
15574;DHT22;7888;46.748;8.102;2023-02-04T13:12:36;10.60;55.10
15574;DHT22;7888;46.748;8.102;2023-02-04T13:15:03;10.60;55.00
15574;DHT22;7888;46.748;8.102;2023-02-04T13:17:29;10.50;55.00
15574;DHT22;7888;46.748;8.102;2023-02-04T13:19:55;10.50;55.10
15574;DHT22;7888;46.748;8.102;2023-02-04T13:22:21;10.50;55.20
15574;DHT22;7888;46.748;8.102;2023-02-04T13:24:47;10.50;55.10
15574;DHT22;7888;46.748;8.102;2023-02-04T13:27:13;10.50;55.20
15574;DHT22;7888;46.748;8.102;2023-02-04T13:29:39;10.50;55.10
15574;DHT22;7888;46.748;8.102;2023-02-04T13:32:05;10.50;55.10
15574;DHT22;7888;46.748;8.102;2023-02-04T13:34:31;10.50;55.00
15574;DHT22;7888;46.748;8.102;2023-02-04T13:36:57;10.50;55.00
15574;DHT22;7888;46.748;8.102;2023-02-04T13:39:23;10.50;55.00
15574;DHT22;7888;46.748;8.102;2023-02-04T13:41:49;10.50;55.10
15574;DHT22;7888;46.748;8.102;2023-02-04T13:44:14;10.50;55.10
15574;DHT22;7888;46.748;8.102;2023-02-04T13:46:40;10.50;55.20
15574;DHT22;7888;46.748;8.102;2023-02-04T13:49:06;10.50;55.20
15574;DHT22;7888;46.748;8.102;2023-02-04T13:51:32;10.50;55.30
15574;DHT22;7888;46.748;8.102;2023-02-04T13:53:58;10.50;55.60
15574;DHT22;7888;46.748;8.102;2023-02-04T13:56:25;10.50;55.30
15574;DHT22;7888;46.748;8.102;2023-02-04T13:58:51;10.50;55.30
15574;DHT22;7888;46.748;8.102;2023-02-04T14:01:18;10.50;55.30
15574;DHT22;7888;46.748;8.102;2023-02-04T14:03:44;10.50;55.30
15574;DHT22;7888;46.748;8.102;2023-02-04T14:06:11;10.50;55.30
15574;DHT22;7888;46.748;8.102;2023-02-04T14:08:37;10.50;55.40
15574;DHT22;7888;46.748;8.102;2023-02-04T14:11:03;10.50;55.40
15574;DHT22;7888;46.748;8.102;2023-02-04T14:13:29;10.60;55.40
15574;DHT22;7888;46.748;8.102;2023-02-04T14:15:55;10.60;55.40
15574;DHT22;7888;46.748;8.102;2023-02-04T14:18:21;10.60;55.40
15574;DHT22;7888;46.748;8.102;2023-02-04T14:20:47;10.70;55.40
15574;DHT22;7888;46.748;8.102;2023-02-04T14:23:13;10.70;55.40
15574;DHT22;7888;46.748;8.102;2023-02-04T14:25:39;10.70;55.30
15574;DHT22;7888;46.748;8.102;2023-02-04T14:28:05;10.70;55.30
15574;DHT22;7888;46.748;8.102;2023-02-04T14:30:31;10.70;55.20
15574;DHT22;7888;46.748;8.102;2023-02-04T14:32:58;10.70;55.30
15574;DHT22;7888;46.748;8.102;2023-02-04T14:35:24;10.70;55.20
15574;DHT22;7888;46.748;8.102;2023-02-04T14:37:50;10.70;55.20
15574;DHT22;7888;46.748;8.102;2023-02-04T14:40:18;10.70;55.20
15574;DHT22;7888;46.748;8.102;2023-02-04T14:42:44;10.70;55.30
15574;DHT22;7888;46.748;8.102;2023-02-04T14:45:11;10.70;55.30
15574;DHT22;7888;46.748;8.102;2023-02-04T14:47:39;10.70;55.40
15574;DHT22;7888;46.748;8.102;2023-02-04T14:50:08;10.70;55.40
15574;DHT22;7888;46.748;8.102;2023-02-04T14:52:37;10.80;55.40
15574;DHT22;7888;46.748;8.102;2023-02-04T14:55:03;10.80;55.40
15574;DHT22;7888;46.748;8.102;2023-02-04T14:57:29;10.80;55.40
15574;DHT22;7888;46.748;8.102;2023-02-04T14:59:54;10.80;55.40
15574;DHT22;7888;46.748;8.102;2023-02-04T15:02:20;10.80;55.40
15574;DHT22;7888;46.748;8.102;2023-02-04T15:04:47;10.80;55.30
15574;DHT22;7888;46.748;8.102;2023-02-04T15:07:14;10.80;55.20
15574;DHT22;7888;46.748;8.102;2023-02-04T15:09:40;10.80;55.20
15574;DHT22;7888;46.748;8.102;2023-02-04T15:12:09;10.80;55.20
15574;DHT22;7888;46.748;8.102;2023-02-04T15:14:34;10.80;55.20
15574;DHT22;7888;46.748;8.102;2023-02-04T15:17:00;10.80;55.10
15574;DHT22;7888;46.748;8.102;2023-02-04T15:19:26;10.80;55.10
15574;DHT22;7888;46.748;8.102;2023-02-04T15:21:52;10.70;55.10
15574;DHT22;7888;46.748;8.102;2023-02-04T15:24:18;10.70;55.20
15574;DHT22;7888;46.748;8.102;2023-02-04T15:26:45;10.70;55.30
15574;DHT22;7888;46.748;8.102;2023-02-04T15:29:10;10.70;55.40
15574;DHT22;7888;46.748;8.102;2023-02-04T15:31:36;10.70;55.50
15574;DHT22;7888;46.748;8.102;2023-02-04T15:34:02;10.70;55.40
15574;DHT22;7888;46.748;8.102;2023-02-04T15:36:28;10.70;55.40
15574;DHT22;7888;46.748;8.102;2023-02-04T15:38:53;10.70;55.40
15574;DHT22;7888;46.748;8.102;2023-02-04T15:41:19;10.70;55.40
15574;DHT22;7888;46.748;8.102;2023-02-04T15:43:45;10.70;55.30
15574;DHT22;7888;46.748;8.102;2023-02-04T15:46:13;10.70;55.90
15574;DHT22;7888;46.748;8.102;2023-02-04T15:48:39;10.70;55.30
15574;DHT22;7888;46.748;8.102;2023-02-04T15:51:04;10.70;55.30
15574;DHT22;7888;46.748;8.102;2023-02-04T15:53:30;10.70;55.40
15574;DHT22;7888;46.748;8.102;2023-02-04T15:55:57;10.70;55.50
15574;DHT22;7888;46.748;8.102;2023-02-04T15:58:22;10.60;55.50
15574;DHT22;7888;46.748;8.102;2023-02-04T16:00:48;10.60;55.60
15574;DHT22;7888;46.748;8.102;2023-02-04T16:03:14;10.60;55.60
15574;DHT22;7888;46.748;8.102;2023-02-04T16:05:40;10.60;55.50
15574;DHT22;7888;46.748;8.102;2023-02-04T16:08:06;10.60;55.50
15574;DHT22;7888;46.748;8.102;2023-02-04T16:10:32;10.50;55.40
15574;DHT22;7888;46.748;8.102;2023-02-04T16:12:57;10.50;55.40
15574;DHT22;7888;46.748;8.102;2023-02-04T16:15:24;10.50;55.50
15574;DHT22;7888;46.748;8.102;2023-02-04T16:17:50;10.50;55.60
15574;DHT22;7888;46.748;8.102;2023-02-04T16:20:16;10.50;55.80
15574;DHT22;7888;46.748;8.102;2023-02-04T16:22:43;10.50;55.80
15574;DHT22;7888;46.748;8.102;2023-02-04T16:25:09;10.50;55.90
15574;DHT22;7888;46.748;8.102;2023-02-04T16:27:35;10.50;55.80